createdAt,value
2019-04-19T00:01:01.491Z,9.20
2019-04-19T00:03:48.738Z,10.30
2019-04-19T00:06:47.638Z,9.73
2019-04-19T00:09:37.126Z,9.00
2019-04-19T00:12:14.653Z,8.23
2019-04-19T00:14:35.747Z,8.43
2019-04-19T00:17:13.929Z,7.90
2019-04-19T00:20:22.269Z,8.13
2019-04-19T00:22:50.963Z,7.47
2019-04-19T00:25:07.835Z,8.60
2019-04-19T00:27:45.631Z,8.97
2019-04-19T00:30:24.349Z,7.53
2019-04-19T00:33:14.710Z,8.10
2019-04-19T00:35:45.508Z,8.20
2019-04-19T00:38:36.983Z,7.70
2019-04-19T00:41:47.852Z,7.20
2019-04-19T00:44:57.669Z,7.50
2019-04-19T00:47:32.969Z,7.10
2019-04-19T00:50:18.113Z,7.60
2019-04-19T00:53:16.866Z,8.33
2019-04-19T00:55:48.566Z,7.50
2019-04-19T00:58:22.620Z,7.00
2019-04-19T01:00:51.094Z,7.33
2019-04-19T01:03:30.543Z,8.43
2019-04-19T01:06:03.583Z,6.87
2019-04-19T01:08:59.272Z,6.47
2019-04-19T01:11:42.250Z,7.03
2019-04-19T01:14:17.202Z,6.90
2019-04-19T01:16:56.068Z,7.20
2019-04-19T01:19:19.791Z,7.87
2019-04-19T01:22:16.989Z,6.90
2019-04-19T01:25:08.845Z,7.53
2019-04-19T01:27:38.978Z,6.80
2019-04-19T01:30:10.632Z,6.60
2019-04-19T01:32:51.286Z,6.47
2019-04-19T01:35:21.527Z,7.13
2019-04-19T01:38:01.955Z,7.67
2019-04-19T01:40:53.783Z,7.17
2019-04-19T01:43:26.287Z,7.70
2019-04-19T01:46:39.391Z,7.10
2019-04-19T01:49:11.983Z,7.30
2019-04-19T01:52:18.823Z,7.20
2019-04-19T01:54:48.029Z,7.10
2019-04-19T01:57:07.842Z,7.30
2019-04-19T01:59:47.460Z,8.03
2019-04-19T02:02:25.753Z,8.00
2019-04-19T02:05:00.682Z,7.80
2019-04-19T02:07:35.437Z,7.23
2019-04-19T02:10:40.986Z,7.63
2019-04-19T02:13:28.571Z,6.70
2019-04-19T02:16:17.170Z,6.90
2019-04-19T02:18:47.260Z,6.23
2019-04-19T02:21:28.793Z,7.63
2019-04-19T02:23:58.974Z,7.10
2019-04-19T02:26:28.051Z,7.20
2019-04-19T02:29:07.855Z,7.50
2019-04-19T02:32:07.175Z,7.13
2019-04-19T02:37:23.125Z,6.87
2019-04-19T02:40:06.080Z,7.43
2019-04-19T02:45:17.749Z,7.50
2019-04-19T02:48:03.630Z,7.70
2019-04-19T02:50:35.863Z,6.67
2019-04-19T02:52:57.091Z,7.40
2019-04-19T02:55:40.931Z,6.50
2019-04-19T03:01:23.898Z,6.10
2019-04-19T03:03:39.876Z,7.50
2019-04-19T03:06:19.591Z,6.83
2019-04-19T03:08:39.715Z,6.40
2019-04-19T03:11:31.425Z,5.83
2019-04-19T03:14:05.301Z,7.00
2019-04-19T03:16:59.381Z,7.50
2019-04-19T03:19:27.454Z,6.80
2019-04-19T03:22:14.520Z,6.90
2019-04-19T03:25:03.261Z,6.73
2019-04-19T03:27:26.375Z,6.80
2019-04-19T03:30:09.373Z,6.63
2019-04-19T03:33:04.317Z,6.77
2019-04-19T03:35:19.239Z,7.20
2019-04-19T03:38:19.227Z,6.60
2019-04-19T03:41:13.548Z,6.73
2019-04-19T03:43:51.942Z,7.00
2019-04-19T03:46:20.952Z,6.57
2019-04-19T03:49:23.569Z,7.97
2019-04-19T03:54:38.900Z,7.57
2019-04-19T03:57:18.385Z,7.90
2019-04-19T03:59:37.297Z,6.73
2019-04-19T04:02:10.426Z,6.30
2019-04-19T04:04:52.659Z,7.43
2019-04-19T04:07:27.086Z,7.03
2019-04-19T04:10:04.160Z,7.50
2019-04-19T04:13:03.818Z,6.53
2019-04-19T04:16:01.068Z,7.57
2019-04-19T04:18:28.688Z,7.00
2019-04-19T04:21:03.826Z,7.17
2019-04-19T04:23:43.063Z,7.30
2019-04-19T04:26:14.784Z,8.07
2019-04-19T04:29:03.058Z,7.47
2019-04-19T04:31:45.746Z,8.70
2019-04-19T04:34:23.059Z,8.17
2019-04-19T04:36:58.433Z,7.63
2019-04-19T04:39:18.125Z,7.90
2019-04-19T04:41:59.278Z,7.20
2019-04-19T04:44:50.699Z,8.00
2019-04-19T04:47:24.093Z,8.43
2019-04-19T04:50:27.786Z,7.53
2019-04-19T04:52:43.766Z,7.87
2019-04-19T04:55:22.142Z,7.53
2019-04-19T04:58:02.167Z,9.03
2019-04-19T05:00:47.881Z,8.33
2019-04-19T05:03:40.028Z,8.70
2019-04-19T05:06:11.229Z,8.10
2019-04-19T05:08:39.010Z,7.13
2019-04-19T05:11:15.979Z,9.17
2019-04-19T05:13:50.018Z,8.40
2019-04-19T05:16:46.746Z,9.03
2019-04-19T05:19:41.564Z,8.70
2019-04-19T05:22:04.544Z,7.80
2019-04-19T05:24:51.493Z,7.30
2019-04-19T05:27:21.805Z,8.60
2019-04-19T05:29:44.770Z,8.47
2019-04-19T05:32:40.030Z,9.00
2019-04-19T05:35:30.275Z,8.70
2019-04-19T05:39:00.028Z,9.20
2019-04-19T05:41:52.902Z,8.70
2019-04-19T05:44:42.317Z,9.70
2019-04-19T05:47:11.498Z,9.90
2019-04-19T05:49:45.824Z,10.10
2019-04-19T05:52:19.105Z,10.10
2019-04-19T05:54:51.524Z,11.00
2019-04-19T05:57:56.629Z,10.60
2019-04-19T06:00:41.083Z,11.10
2019-04-19T06:03:13.193Z,10.20
2019-04-19T06:06:01.311Z,10.27
2019-04-19T06:08:29.377Z,10.43
2019-04-19T06:11:01.580Z,10.47
2019-04-19T06:13:31.952Z,10.30
2019-04-19T06:16:26.015Z,10.60
2019-04-19T06:19:01.497Z,9.67
2019-04-19T06:21:46.073Z,10.10
2019-04-19T06:24:21.642Z,11.40
2019-04-19T06:27:18.166Z,9.67
2019-04-19T06:29:43.636Z,11.00
2019-04-19T06:32:33.931Z,10.23
2019-04-19T06:35:02.569Z,10.77
2019-04-19T06:37:24.747Z,11.67
2019-04-19T06:40:19.714Z,11.40
2019-04-19T06:42:58.093Z,12.30
2019-04-19T06:45:42.121Z,13.17
2019-04-19T06:48:07.471Z,12.37
2019-04-19T06:50:59.711Z,12.47
2019-04-19T06:53:37.789Z,12.43
2019-04-19T06:56:10.897Z,13.80
2019-04-19T06:58:44.455Z,13.33
2019-04-19T07:01:21.731Z,12.97
2019-04-19T07:03:44.902Z,11.57
2019-04-19T07:06:36.240Z,11.30
2019-04-19T07:09:21.463Z,12.47
2019-04-19T07:11:51.319Z,12.67
2019-04-19T07:14:10.299Z,13.17
2019-04-19T07:17:11.049Z,13.17
2019-04-19T07:19:44.723Z,13.20
2019-04-19T07:22:18.513Z,13.33
2019-04-19T07:25:03.518Z,12.90
2019-04-19T07:27:38.805Z,11.40
2019-04-19T07:30:05.129Z,12.90
2019-04-19T07:32:44.800Z,13.40
2019-04-19T07:35:43.663Z,13.13
2019-04-19T07:38:18.294Z,12.60
2019-04-19T07:40:48.976Z,13.03
2019-04-19T07:43:22.454Z,13.03
2019-04-19T07:46:19.406Z,13.47
2019-04-19T07:48:53.472Z,13.60
2019-04-19T07:51:53.041Z,14.23
2019-04-19T07:54:33.607Z,13.30
2019-04-19T07:57:39.596Z,15.27
2019-04-19T08:00:05.132Z,15.20
2019-04-19T08:05:15.802Z,14.20
2019-04-19T08:10:33.498Z,12.90
2019-04-19T08:13:19.629Z,15.13
2019-04-19T08:15:54.661Z,14.20
2019-04-19T08:18:24.272Z,15.10
2019-04-19T08:28:37.563Z,17.90
2019-04-19T08:31:19.549Z,16.73
2019-04-19T08:33:53.121Z,13.47
2019-04-19T08:36:31.081Z,13.03
2019-04-19T08:39:26.163Z,14.20
2019-04-19T08:42:07.468Z,19.27
2019-04-19T08:44:29.463Z,20.67
2019-04-19T08:47:16.762Z,14.87
2019-04-19T08:50:04.999Z,13.60
2019-04-19T08:52:38.585Z,13.20
2019-04-19T08:55:46.172Z,14.37
2019-04-19T08:58:08.531Z,13.77
2019-04-19T09:01:13.924Z,13.10
2019-04-19T09:03:37.698Z,13.77
2019-04-19T09:06:36.401Z,13.83
2019-04-19T09:08:42.459Z,12.77
2019-04-19T09:11:19.738Z,12.23
2019-04-19T09:14:12.617Z,13.77
2019-04-19T09:16:51.267Z,13.70
2019-04-19T09:19:26.796Z,13.30
2019-04-19T09:21:47.705Z,12.60
2019-04-19T09:24:12.903Z,16.20
2019-04-19T09:27:00.372Z,20.43
2019-04-19T09:29:40.370Z,15.97
2019-04-19T09:32:05.677Z,17.53
2019-04-19T09:34:33.322Z,13.50
2019-04-19T09:37:17.149Z,12.10
2019-04-19T09:40:02.166Z,12.33
2019-04-19T09:42:37.907Z,11.90
2019-04-19T09:45:01.968Z,12.33
2019-04-19T09:47:34.363Z,10.67
2019-04-19T09:50:41.740Z,11.20
2019-04-19T09:53:27.552Z,9.63
2019-04-19T09:56:07.550Z,8.53
2019-04-19T09:58:52.322Z,9.07
2019-04-19T10:01:14.816Z,9.00
2019-04-19T10:03:55.804Z,7.60
2019-04-19T10:06:24.747Z,9.10
2019-04-19T10:09:11.184Z,9.83
2019-04-19T10:11:39.042Z,9.90
2019-04-19T10:14:13.249Z,8.90
2019-04-19T10:16:54.841Z,7.90
2019-04-19T10:19:28.647Z,8.10
2019-04-19T10:22:28.581Z,7.37
2019-04-19T10:25:18.984Z,7.00
2019-04-19T10:27:52.035Z,6.10
2019-04-19T10:30:48.213Z,7.23
2019-04-19T10:33:33.186Z,6.50
2019-04-19T10:35:58.208Z,5.67
2019-04-19T10:38:29.635Z,6.50
2019-04-19T10:41:03.995Z,6.17
2019-04-19T10:44:05.342Z,6.23
2019-04-19T10:46:31.028Z,5.80
2019-04-19T10:49:14.371Z,6.10
2019-04-19T10:52:00.657Z,4.60
2019-04-19T10:54:36.333Z,4.67
2019-04-19T10:57:19.595Z,5.00
2019-04-19T10:59:58.644Z,4.97
2019-04-19T11:02:34.403Z,4.53
2019-04-19T11:05:11.225Z,4.67
2019-04-19T11:08:01.328Z,4.50
2019-04-19T11:10:35.701Z,4.77
2019-04-19T11:13:10.525Z,4.33
2019-04-19T11:15:44.877Z,5.57
2019-04-19T11:18:17.335Z,6.33
2019-04-19T11:20:52.843Z,6.20
2019-04-19T11:23:27.701Z,6.10
2019-04-19T11:26:17.109Z,6.00
2019-04-19T11:28:49.401Z,6.97
2019-04-19T11:32:46.121Z,6.50
2019-04-19T11:35:21.503Z,6.87
2019-04-19T11:37:57.141Z,7.60
2019-04-19T11:40:33.155Z,8.17
2019-04-19T11:43:10.297Z,7.77
2019-04-19T11:45:58.445Z,7.60
2019-04-19T11:48:33.419Z,6.33
2019-04-19T11:51:09.805Z,6.53
2019-04-19T11:53:46.520Z,7.77
2019-04-19T11:56:56.978Z,6.93
2019-04-19T12:02:04.012Z,6.60
2019-04-19T12:04:42.386Z,7.00
2019-04-19T12:07:20.775Z,7.07
2019-04-19T12:09:54.397Z,6.73
2019-04-19T12:12:28.854Z,6.90
2019-04-19T12:15:02.449Z,7.13
2019-04-19T12:17:35.588Z,7.13
2019-04-19T12:20:13.299Z,6.93
2019-04-19T12:22:49.638Z,6.73
2019-04-19T12:25:23.896Z,6.37
2019-04-19T12:28:03.675Z,6.50
2019-04-19T12:30:38.406Z,6.53
2019-04-19T12:33:13.593Z,6.73
2019-04-19T12:35:49.466Z,5.77
2019-04-19T12:38:33.224Z,6.80
2019-04-19T12:41:08.225Z,6.80
2019-04-19T12:43:43.659Z,6.67
2019-04-19T12:46:19.081Z,7.10
2019-04-19T12:49:12.269Z,7.00
2019-04-19T12:52:00.245Z,6.83
2019-04-19T12:54:34.059Z,7.40
2019-04-19T12:57:07.840Z,7.20
2019-04-19T12:59:44.269Z,6.70
2019-04-19T13:02:45.456Z,6.33
2019-04-19T13:05:28.949Z,6.57
2019-04-19T13:08:19.157Z,8.10
2019-04-19T13:10:54.490Z,7.00
2019-04-19T13:13:31.942Z,6.90
2019-04-19T13:16:08.426Z,6.50
2019-04-19T13:18:42.538Z,6.43
2019-04-19T13:21:16.013Z,6.60
2019-04-19T13:23:53.732Z,6.03
2019-04-19T13:26:31.384Z,6.77
2019-04-19T13:29:13.327Z,5.70
2019-04-19T13:31:47.423Z,6.00
2019-04-19T13:34:23.315Z,5.07
2019-04-19T13:37:27.286Z,6.13
2019-04-19T13:40:28.522Z,5.43
2019-04-19T13:43:03.305Z,5.20
2019-04-19T13:45:41.325Z,4.80
2019-04-19T13:48:16.675Z,5.47
2019-04-19T13:50:52.575Z,4.73
2019-04-19T13:53:30.899Z,4.80
2019-04-19T13:56:30.903Z,5.40
2019-04-19T13:59:07.940Z,4.63
2019-04-19T14:01:46.251Z,4.90
2019-04-19T14:04:18.071Z,4.13
2019-04-19T14:06:51.617Z,5.03
2019-04-19T14:09:37.015Z,4.80
2019-04-19T14:12:15.378Z,5.07
2019-04-19T14:15:12.889Z,4.37
2019-04-19T14:18:04.630Z,4.10
2019-04-19T14:20:54.215Z,4.40
2019-04-19T14:23:31.354Z,4.50
2019-04-19T14:26:33.909Z,3.93
2019-04-19T14:29:12.277Z,4.47
2019-04-19T14:31:59.401Z,3.93
2019-04-19T14:34:37.367Z,3.97
2019-04-19T14:37:19.019Z,4.30
2019-04-19T14:39:52.350Z,4.10
2019-04-19T14:42:30.998Z,4.03
2019-04-19T14:45:04.040Z,4.57
2019-04-19T14:47:39.228Z,4.20
2019-04-19T14:50:12.977Z,4.93
2019-04-19T14:52:48.921Z,3.93
2019-04-19T14:55:27.561Z,3.90
2019-04-19T14:58:18.222Z,4.10
2019-04-19T15:01:21.341Z,3.70
2019-04-19T15:04:19.105Z,4.33
2019-04-19T15:07:12.349Z,4.13
2019-04-19T15:10:03.747Z,4.03
2019-04-19T15:12:38.539Z,4.63
2019-04-19T15:15:14.557Z,3.57
2019-04-19T15:17:51.896Z,3.33
2019-04-19T15:20:26.855Z,3.90
2019-04-19T15:23:02.470Z,3.90
2019-04-19T15:25:36.852Z,4.70
2019-04-19T15:28:11.294Z,4.87
2019-04-19T15:30:50.014Z,6.27
2019-04-19T15:33:46.574Z,5.37
2019-04-19T15:36:21.801Z,5.53
2019-04-19T15:38:59.768Z,7.10
2019-04-19T15:41:34.804Z,5.57
2019-04-19T15:44:16.922Z,4.50
2019-04-19T15:46:51.656Z,3.70
2019-04-19T15:49:28.121Z,4.33
2019-04-19T15:52:01.915Z,4.50
2019-04-19T15:54:41.850Z,3.97
2019-04-19T15:57:20.439Z,4.50
2019-04-19T15:59:55.833Z,4.53
2019-04-19T16:02:36.020Z,4.13
2019-04-19T16:05:42.173Z,4.93
2019-04-19T16:08:40.974Z,4.23
2019-04-19T16:11:41.917Z,4.70
2019-04-19T16:14:32.643Z,5.70
2019-04-19T16:17:07.376Z,5.40
2019-04-19T16:19:45.382Z,5.20
2019-04-19T16:22:30.173Z,5.90
2019-04-19T16:25:05.241Z,5.20
2019-04-19T16:27:57.522Z,5.17
2019-04-19T16:30:32.501Z,5.67
2019-04-19T16:33:07.200Z,5.70
2019-04-19T16:35:42.522Z,5.60
2019-04-19T16:38:16.598Z,5.27
2019-04-19T16:40:52.596Z,5.87
2019-04-19T16:43:29.293Z,7.10
2019-04-19T16:46:13.472Z,8.60
2019-04-19T16:48:55.464Z,7.50
2019-04-19T16:51:37.657Z,6.43
2019-04-19T16:54:10.084Z,6.90
2019-04-19T16:56:44.318Z,6.57
2019-04-19T16:59:19.683Z,6.07
2019-04-19T17:01:58.972Z,6.00
2019-04-19T17:04:36.682Z,5.60
2019-04-19T17:07:20.692Z,5.90
2019-04-19T17:09:57.359Z,5.43
2019-04-19T17:12:30.611Z,6.33
2019-04-19T17:15:17.204Z,6.97
2019-04-19T17:18:26.820Z,12.03
2019-04-19T17:21:07.906Z,8.83
2019-04-19T17:23:44.782Z,7.10
2019-04-19T17:26:23.128Z,13.33
2019-04-19T17:29:01.192Z,6.93
2019-04-19T17:31:54.237Z,5.43
2019-04-19T17:34:27.919Z,8.40
2019-04-19T17:37:04.379Z,10.33
2019-04-19T17:39:40.856Z,6.53
2019-04-19T17:42:17.015Z,9.20
2019-04-19T17:44:55.626Z,8.50
2019-04-19T17:47:33.750Z,11.07
2019-04-19T17:50:11.182Z,12.47
2019-04-19T17:52:46.609Z,8.30
2019-04-19T17:55:34.917Z,6.40
2019-04-19T17:58:03.380Z,6.47
2019-04-19T18:00:38.353Z,7.40
2019-04-19T18:03:17.434Z,9.17
2019-04-19T18:06:00.453Z,7.70
2019-04-19T18:08:50.262Z,7.00
2019-04-19T18:11:32.447Z,6.33
2019-04-19T18:14:05.369Z,7.00
2019-04-19T18:16:40.661Z,6.53
2019-04-19T18:19:16.798Z,7.33
2019-04-19T18:21:48.261Z,7.10
2019-04-19T18:24:29.716Z,7.43
2019-04-19T18:27:10.663Z,7.10
2019-04-19T18:29:46.188Z,7.03
2019-04-19T18:32:52.665Z,7.17
2019-04-19T18:35:31.782Z,7.87
2019-04-19T18:38:13.609Z,8.17
2019-04-19T18:40:58.357Z,8.77
2019-04-19T18:44:00.016Z,8.60
2019-04-19T18:46:24.766Z,8.93
2019-04-19T18:49:09.653Z,10.93
2019-04-19T18:51:48.712Z,10.00
2019-04-19T18:54:50.150Z,10.93
2019-04-19T18:57:16.128Z,10.80
2019-04-19T18:59:56.534Z,11.00
2019-04-19T19:02:51.674Z,10.30
2019-04-19T19:05:44.255Z,11.13
2019-04-19T19:08:22.350Z,11.20
2019-04-19T19:10:58.872Z,10.80
2019-04-19T19:13:39.186Z,11.03
2019-04-19T19:16:19.449Z,12.97
2019-04-19T19:19:08.768Z,15.70
2019-04-19T19:21:45.411Z,12.33
2019-04-19T19:24:44.200Z,10.97
2019-04-19T19:27:10.567Z,9.53
2019-04-19T19:29:38.790Z,11.10
2019-04-19T19:32:15.956Z,10.90
2019-04-19T19:34:54.670Z,10.53
2019-04-19T19:37:28.187Z,11.40
2019-04-19T19:40:09.848Z,12.10
2019-04-19T19:42:56.287Z,11.70
2019-04-19T19:45:25.586Z,10.30
2019-04-19T19:48:47.043Z,11.67
2019-04-19T19:51:16.816Z,10.67
2019-04-19T19:54:28.506Z,10.83
2019-04-19T19:56:32.217Z,10.97
2019-04-19T19:59:17.992Z,11.43
2019-04-19T20:01:57.948Z,11.10
2019-04-19T20:04:19.250Z,11.30
2019-04-19T20:07:01.160Z,10.80
2019-04-19T20:09:44.685Z,12.47
2019-04-19T20:12:19.733Z,10.70
2019-04-19T20:14:58.385Z,11.00
2019-04-19T20:17:31.284Z,10.83
2019-04-19T20:20:07.951Z,10.83
2019-04-19T20:22:46.810Z,10.80
2019-04-19T20:25:38.579Z,10.67
2019-04-19T20:28:09.116Z,10.53
2019-04-19T20:31:01.690Z,10.67
2019-04-19T20:33:46.235Z,11.83
2019-04-19T20:36:29.651Z,15.57
2019-04-19T20:39:03.119Z,11.80
2019-04-19T20:41:40.259Z,11.10
2019-04-19T20:44:32.940Z,9.20
2019-04-19T20:46:52.214Z,9.67
2019-04-19T20:49:23.876Z,8.70
2019-04-19T20:52:09.516Z,8.77
2019-04-19T20:54:58.373Z,9.37
2019-04-19T20:57:59.116Z,9.23
2019-04-19T21:00:40.658Z,8.77
2019-04-19T21:03:26.241Z,8.83
2019-04-19T21:05:54.951Z,9.27
2019-04-19T21:08:37.585Z,10.17
2019-04-19T21:11:19.383Z,8.70
2019-04-19T21:13:57.422Z,9.27
2019-04-19T21:16:29.143Z,8.40
2019-04-19T21:19:20.360Z,8.30
2019-04-19T21:21:57.279Z,8.80
2019-04-19T21:25:01.763Z,8.17
2019-04-19T21:27:25.823Z,7.97
2019-04-19T21:29:56.586Z,9.20
2019-04-19T21:32:33.791Z,8.77
2019-04-19T21:35:08.022Z,8.87
2019-04-19T21:37:45.681Z,8.40
2019-04-19T21:40:37.841Z,18.37
2019-04-19T21:43:12.951Z,14.10
2019-04-19T21:45:51.760Z,9.20
2019-04-19T21:48:31.081Z,8.50
2019-04-19T21:51:18.460Z,8.87
2019-04-19T21:53:51.318Z,8.20
2019-04-19T21:56:33.556Z,8.13
2019-04-19T21:59:09.090Z,8.83
2019-04-19T22:01:49.115Z,19.30
2019-04-19T22:04:23.947Z,21.33
2019-04-19T22:07:05.240Z,12.10
2019-04-19T22:09:36.603Z,9.93
2019-04-19T22:12:10.726Z,9.07
2019-04-19T22:14:50.784Z,8.47
2019-04-19T22:17:25.162Z,8.97
2019-04-19T22:20:09.001Z,8.23
2019-04-19T22:22:37.287Z,10.00
2019-04-19T22:25:28.322Z,8.80
2019-04-19T22:27:45.492Z,9.07
2019-04-19T22:30:18.044Z,9.30
2019-04-19T22:33:00.404Z,8.40
2019-04-19T22:35:39.437Z,9.10
2019-04-19T22:38:17.910Z,9.10
2019-04-19T22:40:59.862Z,9.13
2019-04-19T22:43:38.479Z,8.40
2019-04-19T22:46:19.481Z,8.20
2019-04-19T22:48:59.469Z,9.17
2019-04-19T22:51:32.958Z,8.37
2019-04-19T22:54:06.587Z,8.50
2019-04-19T22:56:58.556Z,9.93
2019-04-19T22:59:22.098Z,8.03
2019-04-19T23:02:22.794Z,8.77
2019-04-19T23:04:59.253Z,9.07
2019-04-19T23:07:42.725Z,9.50
2019-04-19T23:10:06.991Z,9.20
2019-04-19T23:12:43.982Z,9.77
2019-04-19T23:15:22.015Z,8.50
2019-04-19T23:17:50.384Z,8.83
2019-04-19T23:20:31.089Z,8.23
2019-04-19T23:23:07.474Z,8.93
2019-04-19T23:25:42.438Z,8.90
2019-04-19T23:28:25.353Z,9.00
2019-04-19T23:31:05.365Z,7.47
2019-04-19T23:33:39.865Z,8.90
2019-04-19T23:36:31.235Z,8.73
2019-04-19T23:39:11.129Z,9.70
2019-04-19T23:41:48.834Z,9.40
2019-04-19T23:44:24.890Z,9.23
2019-04-19T23:47:02.247Z,8.87
2019-04-19T23:49:46.030Z,9.30
2019-04-19T23:52:12.943Z,8.90
2019-04-19T23:55:06.258Z,9.27
2019-04-19T23:57:56.092Z,9.00
